sensor_id;sensor_type;location;lat;lon;timestamp;P1;durP1;ratioP1;P2;durP2;ratioP2
56239;SDS011;42154;51.992;5.896;2023-03-14T00:01:22;8.50;;;2.65;;
56239;SDS011;42154;51.992;5.896;2023-03-14T00:03:49;6.32;;;2.35;;
56239;SDS011;42154;51.992;5.896;2023-03-14T00:06:15;9.38;;;2.33;;
56239;SDS011;42154;51.992;5.896;2023-03-14T00:08:42;6.93;;;2.28;;
56239;SDS011;42154;51.992;5.896;2023-03-14T00:11:13;6.20;;;2.10;;
56239;SDS011;42154;51.992;5.896;2023-03-14T00:13:49;11.60;;;2.85;;
56239;SDS011;42154;51.992;5.896;2023-03-14T00:16:16;7.82;;;2.53;;
56239;SDS011;42154;51.992;5.896;2023-03-14T00:18:41;8.45;;;2.75;;
56239;SDS011;42154;51.992;5.896;2023-03-14T00:21:08;7.45;;;2.78;;
56239;SDS011;42154;51.992;5.896;2023-03-14T00:23:35;12.10;;;3.00;;
56239;SDS011;42154;51.992;5.896;2023-03-14T00:26:03;5.53;;;2.05;;
56239;SDS011;42154;51.992;5.896;2023-03-14T00:28:31;9.10;;;2.45;;
56239;SDS011;42154;51.992;5.896;2023-03-14T00:30:57;6.60;;;2.25;;
56239;SDS011;42154;51.992;5.896;2023-03-14T00:33:23;8.68;;;2.10;;
56239;SDS011;42154;51.992;5.896;2023-03-14T00:35:56;6.85;;;2.20;;
56239;SDS011;42154;51.992;5.896;2023-03-14T00:38:24;3.63;;;1.58;;
56239;SDS011;42154;51.992;5.896;2023-03-14T00:40:53;7.85;;;1.73;;
56239;SDS011;42154;51.992;5.896;2023-03-14T00:43:20;6.18;;;1.30;;
56239;SDS011;42154;51.992;5.896;2023-03-14T00:45:49;4.95;;;1.30;;
56239;SDS011;42154;51.992;5.896;2023-03-14T00:48:16;4.63;;;1.50;;
56239;SDS011;42154;51.992;5.896;2023-03-14T00:50:42;4.72;;;1.30;;
56239;SDS011;42154;51.992;5.896;2023-03-14T00:53:08;3.45;;;1.20;;
56239;SDS011;42154;51.992;5.896;2023-03-14T00:55:37;6.05;;;1.60;;
56239;SDS011;42154;51.992;5.896;2023-03-14T00:58:04;3.17;;;1.30;;
56239;SDS011;42154;51.992;5.896;2023-03-14T01:00:30;4.72;;;1.60;;
56239;SDS011;42154;51.992;5.896;2023-03-14T01:02:57;4.18;;;1.25;;
56239;SDS011;42154;51.992;5.896;2023-03-14T01:05:23;6.30;;;1.38;;
56239;SDS011;42154;51.992;5.896;2023-03-14T01:07:49;3.53;;;1.02;;
56239;SDS011;42154;51.992;5.896;2023-03-14T01:10:15;5.72;;;1.52;;
56239;SDS011;42154;51.992;5.896;2023-03-14T01:12:41;5.90;;;1.63;;
56239;SDS011;42154;51.992;5.896;2023-03-14T01:15:07;5.38;;;1.35;;
56239;SDS011;42154;51.992;5.896;2023-03-14T01:17:33;4.30;;;1.48;;
56239;SDS011;42154;51.992;5.896;2023-03-14T01:20:00;6.68;;;1.52;;
56239;SDS011;42154;51.992;5.896;2023-03-14T01:22:26;5.93;;;1.40;;
56239;SDS011;42154;51.992;5.896;2023-03-14T01:24:52;8.30;;;1.60;;
56239;SDS011;42154;51.992;5.896;2023-03-14T01:27:18;6.82;;;1.60;;
56239;SDS011;42154;51.992;5.896;2023-03-14T01:29:43;7.82;;;1.70;;
56239;SDS011;42154;51.992;5.896;2023-03-14T01:32:09;7.20;;;2.00;;
56239;SDS011;42154;51.992;5.896;2023-03-14T01:34:35;6.65;;;2.33;;
56239;SDS011;42154;51.992;5.896;2023-03-14T01:37:01;5.35;;;1.70;;
56239;SDS011;42154;51.992;5.896;2023-03-14T01:39:28;7.55;;;1.75;;
56239;SDS011;42154;51.992;5.896;2023-03-14T01:41:54;7.20;;;1.60;;
56239;SDS011;42154;51.992;5.896;2023-03-14T01:44:19;9.68;;;1.98;;
56239;SDS011;42154;51.992;5.896;2023-03-14T01:46:45;8.07;;;1.55;;
56239;SDS011;42154;51.992;5.896;2023-03-14T01:52:07;7.28;;;1.90;;
56239;SDS011;42154;51.992;5.896;2023-03-14T01:54:39;10.18;;;1.77;;
56239;SDS011;42154;51.992;5.896;2023-03-14T01:57:10;10.18;;;2.05;;
56239;SDS011;42154;51.992;5.896;2023-03-14T01:59:42;6.82;;;1.80;;
56239;SDS011;42154;51.992;5.896;2023-03-14T02:02:16;4.95;;;1.75;;
56239;SDS011;42154;51.992;5.896;2023-03-14T02:04:42;4.07;;;1.40;;
56239;SDS011;42154;51.992;5.896;2023-03-14T02:07:12;7.13;;;2.05;;
56239;SDS011;42154;51.992;5.896;2023-03-14T02:09:56;5.93;;;1.83;;
56239;SDS011;42154;51.992;5.896;2023-03-14T02:12:27;7.57;;;2.05;;
56239;SDS011;42154;51.992;5.896;2023-03-14T02:15:10;8.02;;;2.00;;
56239;SDS011;42154;51.992;5.896;2023-03-14T02:26:37;7.93;;;1.88;;
56239;SDS011;42154;51.992;5.896;2023-03-14T02:29:07;6.65;;;1.77;;
56239;SDS011;42154;51.992;5.896;2023-03-14T02:31:34;4.80;;;1.77;;
56239;SDS011;42154;51.992;5.896;2023-03-14T02:34:00;6.78;;;2.00;;
56239;SDS011;42154;51.992;5.896;2023-03-14T02:36:27;9.55;;;2.03;;
56239;SDS011;42154;51.992;5.896;2023-03-14T02:39:03;8.55;;;1.73;;
56239;SDS011;42154;51.992;5.896;2023-03-14T02:41:39;4.90;;;1.42;;
56239;SDS011;42154;51.992;5.896;2023-03-14T02:44:06;7.40;;;1.48;;
56239;SDS011;42154;51.992;5.896;2023-03-14T02:46:33;6.68;;;1.80;;
56239;SDS011;42154;51.992;5.896;2023-03-14T02:49:03;4.38;;;1.70;;
56239;SDS011;42154;51.992;5.896;2023-03-14T02:51:32;6.93;;;1.60;;
56239;SDS011;42154;51.992;5.896;2023-03-14T02:53:59;7.13;;;1.60;;
56239;SDS011;42154;51.992;5.896;2023-03-14T02:56:25;6.57;;;1.48;;
56239;SDS011;42154;51.992;5.896;2023-03-14T02:58:50;8.52;;;1.98;;
56239;SDS011;42154;51.992;5.896;2023-03-14T03:01:27;7.13;;;1.88;;
56239;SDS011;42154;51.992;5.896;2023-03-14T03:03:53;5.95;;;1.63;;
56239;SDS011;42154;51.992;5.896;2023-03-14T03:06:19;7.68;;;2.05;;
56239;SDS011;42154;51.992;5.896;2023-03-14T03:08:44;9.43;;;1.85;;
56239;SDS011;42154;51.992;5.896;2023-03-14T03:11:10;5.50;;;1.55;;
56239;SDS011;42154;51.992;5.896;2023-03-14T03:13:36;7.88;;;1.60;;
56239;SDS011;42154;51.992;5.896;2023-03-14T03:16:04;5.82;;;1.52;;
56239;SDS011;42154;51.992;5.896;2023-03-14T03:18:30;4.60;;;1.45;;
56239;SDS011;42154;51.992;5.896;2023-03-14T03:21:04;3.88;;;1.35;;
56239;SDS011;42154;51.992;5.896;2023-03-14T03:23:30;8.07;;;1.98;;
56239;SDS011;42154;51.992;5.896;2023-03-14T03:25:56;9.27;;;2.05;;
56239;SDS011;42154;51.992;5.896;2023-03-14T03:28:22;6.88;;;1.85;;
56239;SDS011;42154;51.992;5.896;2023-03-14T03:30:49;5.07;;;1.20;;
56239;SDS011;42154;51.992;5.896;2023-03-14T03:33:15;4.28;;;1.63;;
56239;SDS011;42154;51.992;5.896;2023-03-14T03:35:47;8.27;;;1.77;;
56239;SDS011;42154;51.992;5.896;2023-03-14T03:38:18;8.77;;;2.20;;
56239;SDS011;42154;51.992;5.896;2023-03-14T03:40:47;6.90;;;1.80;;
56239;SDS011;42154;51.992;5.896;2023-03-14T03:43:13;7.38;;;1.90;;
56239;SDS011;42154;51.992;5.896;2023-03-14T03:45:42;7.38;;;1.83;;
56239;SDS011;42154;51.992;5.896;2023-03-14T03:48:08;7.57;;;2.28;;
56239;SDS011;42154;51.992;5.896;2023-03-14T03:50:34;9.50;;;2.28;;
56239;SDS011;42154;51.992;5.896;2023-03-14T03:53:00;9.73;;;2.50;;
56239;SDS011;42154;51.992;5.896;2023-03-14T03:55:26;6.40;;;2.25;;
56239;SDS011;42154;51.992;5.896;2023-03-14T03:57:53;6.13;;;1.70;;
56239;SDS011;42154;51.992;5.896;2023-03-14T04:00:19;8.07;;;2.63;;
56239;SDS011;42154;51.992;5.896;2023-03-14T04:02:47;12.95;;;2.53;;
56239;SDS011;42154;51.992;5.896;2023-03-14T04:05:15;12.02;;;3.03;;
56239;SDS011;42154;51.992;5.896;2023-03-14T04:07:48;8.45;;;1.95;;
56239;SDS011;42154;51.992;5.896;2023-03-14T04:10:19;12.20;;;2.92;;
56239;SDS011;42154;51.992;5.896;2023-03-14T04:13:05;7.97;;;2.60;;
56239;SDS011;42154;51.992;5.896;2023-03-14T04:15:32;11.65;;;2.38;;
56239;SDS011;42154;51.992;5.896;2023-03-14T04:18:02;9.77;;;2.92;;
56239;SDS011;42154;51.992;5.896;2023-03-14T04:20:29;9.23;;;2.35;;
56239;SDS011;42154;51.992;5.896;2023-03-14T04:22:55;9.70;;;2.10;;
56239;SDS011;42154;51.992;5.896;2023-03-14T04:25:21;12.05;;;2.35;;
56239;SDS011;42154;51.992;5.896;2023-03-14T04:27:51;7.85;;;1.73;;
56239;SDS011;42154;51.992;5.896;2023-03-14T04:30:21;6.97;;;2.40;;
56239;SDS011;42154;51.992;5.896;2023-03-14T04:32:59;9.20;;;2.25;;
56239;SDS011;42154;51.992;5.896;2023-03-14T04:35:27;11.60;;;2.60;;
56239;SDS011;42154;51.992;5.896;2023-03-14T04:37:59;9.65;;;2.05;;
56239;SDS011;42154;51.992;5.896;2023-03-14T04:40:26;8.57;;;2.10;;
56239;SDS011;42154;51.992;5.896;2023-03-14T04:42:56;6.60;;;1.63;;
56239;SDS011;42154;51.992;5.896;2023-03-14T04:45:22;8.75;;;1.98;;
56239;SDS011;42154;51.992;5.896;2023-03-14T04:47:48;10.55;;;2.40;;
56239;SDS011;42154;51.992;5.896;2023-03-14T04:50:17;7.32;;;1.80;;
56239;SDS011;42154;51.992;5.896;2023-03-14T04:52:44;7.35;;;1.98;;
56239;SDS011;42154;51.992;5.896;2023-03-14T04:55:10;7.30;;;1.92;;
56239;SDS011;42154;51.992;5.896;2023-03-14T04:57:37;9.02;;;2.20;;
56239;SDS011;42154;51.992;5.896;2023-03-14T05:00:03;7.82;;;1.77;;
56239;SDS011;42154;51.992;5.896;2023-03-14T05:02:50;7.38;;;1.73;;
56239;SDS011;42154;51.992;5.896;2023-03-14T05:05:43;10.23;;;2.25;;
56239;SDS011;42154;51.992;5.896;2023-03-14T05:08:38;6.20;;;1.88;;
56239;SDS011;42154;51.992;5.896;2023-03-14T05:11:22;6.95;;;1.80;;
56239;SDS011;42154;51.992;5.896;2023-03-14T05:13:51;7.15;;;1.60;;
56239;SDS011;42154;51.992;5.896;2023-03-14T05:16:55;7.00;;;1.40;;
56239;SDS011;42154;51.992;5.896;2023-03-14T05:19:38;5.88;;;2.10;;
56239;SDS011;42154;51.992;5.896;2023-03-14T05:22:12;5.13;;;1.23;;
56239;SDS011;42154;51.992;5.896;2023-03-14T05:24:56;2.92;;;1.02;;
56239;SDS011;42154;51.992;5.896;2023-03-14T05:27:33;7.93;;;1.48;;
56239;SDS011;42154;51.992;5.896;2023-03-14T05:30:08;6.88;;;1.30;;
56239;SDS011;42154;51.992;5.896;2023-03-14T05:32:56;4.35;;;1.10;;
56239;SDS011;42154;51.992;5.896;2023-03-14T05:35:57;6.55;;;1.45;;
56239;SDS011;42154;51.992;5.896;2023-03-14T05:38:42;3.53;;;1.00;;
56239;SDS011;42154;51.992;5.896;2023-03-14T05:41:22;4.55;;;1.10;;
56239;SDS011;42154;51.992;5.896;2023-03-14T05:44:08;4.15;;;1.17;;
56239;SDS011;42154;51.992;5.896;2023-03-14T05:46:48;4.28;;;0.90;;
56239;SDS011;42154;51.992;5.896;2023-03-14T05:49:28;3.35;;;1.08;;
56239;SDS011;42154;51.992;5.896;2023-03-14T05:52:14;4.95;;;1.00;;
56239;SDS011;42154;51.992;5.896;2023-03-14T05:54:58;3.47;;;1.05;;
56239;SDS011;42154;51.992;5.896;2023-03-14T05:57:38;3.97;;;1.08;;
56239;SDS011;42154;51.992;5.896;2023-03-14T06:00:30;5.38;;;1.08;;
56239;SDS011;42154;51.992;5.896;2023-03-14T06:03:12;2.85;;;1.20;;
56239;SDS011;42154;51.992;5.896;2023-03-14T06:05:42;5.63;;;1.40;;
56239;SDS011;42154;51.992;5.896;2023-03-14T06:08:08;4.45;;;1.00;;
56239;SDS011;42154;51.992;5.896;2023-03-14T06:10:35;4.93;;;1.30;;
56239;SDS011;42154;51.992;5.896;2023-03-14T06:13:01;5.57;;;1.38;;
56239;SDS011;42154;51.992;5.896;2023-03-14T06:15:27;4.75;;;1.33;;
56239;SDS011;42154;51.992;5.896;2023-03-14T06:17:55;4.82;;;1.42;;
56239;SDS011;42154;51.992;5.896;2023-03-14T06:20:21;5.80;;;1.98;;
56239;SDS011;42154;51.992;5.896;2023-03-14T06:22:47;4.78;;;1.50;;
56239;SDS011;42154;51.992;5.896;2023-03-14T06:25:14;5.53;;;1.50;;
56239;SDS011;42154;51.992;5.896;2023-03-14T06:27:44;3.65;;;1.38;;
56239;SDS011;42154;51.992;5.896;2023-03-14T06:30:10;4.78;;;1.58;;
56239;SDS011;42154;51.992;5.896;2023-03-14T06:32:36;4.38;;;1.60;;
56239;SDS011;42154;51.992;5.896;2023-03-14T06:35:06;5.60;;;1.98;;
56239;SDS011;42154;51.992;5.896;2023-03-14T06:37:36;5.68;;;1.90;;
56239;SDS011;42154;51.992;5.896;2023-03-14T06:40:02;5.35;;;2.10;;
56239;SDS011;42154;51.992;5.896;2023-03-14T06:42:45;3.85;;;1.67;;
56239;SDS011;42154;51.992;5.896;2023-03-14T06:45:13;3.92;;;1.90;;
56239;SDS011;42154;51.992;5.896;2023-03-14T06:47:39;5.90;;;2.40;;
56239;SDS011;42154;51.992;5.896;2023-03-14T06:50:06;3.22;;;2.08;;
56239;SDS011;42154;51.992;5.896;2023-03-14T06:52:34;5.03;;;2.28;;
56239;SDS011;42154;51.992;5.896;2023-03-14T06:55:00;3.50;;;2.20;;
56239;SDS011;42154;51.992;5.896;2023-03-14T06:57:26;5.40;;;2.10;;
56239;SDS011;42154;51.992;5.896;2023-03-14T06:59:52;5.07;;;1.83;;
56239;SDS011;42154;51.992;5.896;2023-03-14T07:02:17;4.47;;;2.58;;
56239;SDS011;42154;51.992;5.896;2023-03-14T07:04:43;4.85;;;2.40;;
56239;SDS011;42154;51.992;5.896;2023-03-14T07:07:09;7.03;;;2.53;;
56239;SDS011;42154;51.992;5.896;2023-03-14T07:09:35;5.85;;;2.92;;
56239;SDS011;42154;51.992;5.896;2023-03-14T07:12:01;4.38;;;2.58;;
56239;SDS011;42154;51.992;5.896;2023-03-14T07:14:29;3.95;;;2.72;;
56239;SDS011;42154;51.992;5.896;2023-03-14T07:16:55;7.28;;;3.28;;
56239;SDS011;42154;51.992;5.896;2023-03-14T07:19:21;6.15;;;3.15;;
56239;SDS011;42154;51.992;5.896;2023-03-14T07:21:47;7.43;;;3.22;;
56239;SDS011;42154;51.992;5.896;2023-03-14T07:24:15;7.30;;;3.35;;
56239;SDS011;42154;51.992;5.896;2023-03-14T07:26:41;7.88;;;3.88;;
56239;SDS011;42154;51.992;5.896;2023-03-14T07:29:07;7.40;;;3.40;;
56239;SDS011;42154;51.992;5.896;2023-03-14T07:31:33;7.13;;;2.50;;
56239;SDS011;42154;51.992;5.896;2023-03-14T07:34:00;4.20;;;2.60;;
56239;SDS011;42154;51.992;5.896;2023-03-14T07:36:30;3.80;;;2.35;;
56239;SDS011;42154;51.992;5.896;2023-03-14T07:38:55;4.75;;;3.00;;
56239;SDS011;42154;51.992;5.896;2023-03-14T07:41:50;4.40;;;2.38;;
56239;SDS011;42154;51.992;5.896;2023-03-14T07:44:35;2.83;;;1.77;;
56239;SDS011;42154;51.992;5.896;2023-03-14T07:47:01;3.60;;;1.52;;
56239;SDS011;42154;51.992;5.896;2023-03-14T07:49:27;6.88;;;1.52;;
56239;SDS011;42154;51.992;5.896;2023-03-14T07:51:53;4.25;;;1.20;;
56239;SDS011;42154;51.992;5.896;2023-03-14T07:54:19;1.77;;;0.90;;
56239;SDS011;42154;51.992;5.896;2023-03-14T07:56:45;2.92;;;0.85;;
56239;SDS011;42154;51.992;5.896;2023-03-14T07:59:11;2.38;;;1.00;;
56239;SDS011;42154;51.992;5.896;2023-03-14T08:01:37;1.73;;;0.73;;
56239;SDS011;42154;51.992;5.896;2023-03-14T08:04:03;3.35;;;0.90;;
56239;SDS011;42154;51.992;5.896;2023-03-14T08:06:29;2.28;;;0.68;;
56239;SDS011;42154;51.992;5.896;2023-03-14T08:08:55;2.08;;;0.80;;
56239;SDS011;42154;51.992;5.896;2023-03-14T08:11:21;2.05;;;0.75;;
56239;SDS011;42154;51.992;5.896;2023-03-14T08:13:46;1.10;;;0.70;;
56239;SDS011;42154;51.992;5.896;2023-03-14T08:16:18;1.95;;;0.80;;
56239;SDS011;42154;51.992;5.896;2023-03-14T08:18:44;1.40;;;0.60;;
56239;SDS011;42154;51.992;5.896;2023-03-14T08:21:11;3.08;;;0.60;;
56239;SDS011;42154;51.992;5.896;2023-03-14T08:23:37;2.03;;;0.80;;
56239;SDS011;42154;51.992;5.896;2023-03-14T08:26:03;1.73;;;0.90;;
56239;SDS011;42154;51.992;5.896;2023-03-14T08:28:29;2.85;;;1.05;;
56239;SDS011;42154;51.992;5.896;2023-03-14T08:30:57;2.40;;;1.23;;
56239;SDS011;42154;51.992;5.896;2023-03-14T08:33:24;2.22;;;1.08;;
56239;SDS011;42154;51.992;5.896;2023-03-14T08:35:51;3.22;;;0.80;;
56239;SDS011;42154;51.992;5.896;2023-03-14T08:38:18;1.42;;;0.80;;
56239;SDS011;42154;51.992;5.896;2023-03-14T08:40:44;4.65;;;1.15;;
56239;SDS011;42154;51.992;5.896;2023-03-14T08:43:09;3.25;;;1.20;;
56239;SDS011;42154;51.992;5.896;2023-03-14T08:45:35;3.03;;;0.80;;
56239;SDS011;42154;51.992;5.896;2023-03-14T08:48:01;4.32;;;0.82;;
56239;SDS011;42154;51.992;5.896;2023-03-14T08:50:26;4.18;;;0.73;;
56239;SDS011;42154;51.992;5.896;2023-03-14T08:52:52;4.25;;;0.60;;
56239;SDS011;42154;51.992;5.896;2023-03-14T08:55:18;4.45;;;0.80;;
56239;SDS011;42154;51.992;5.896;2023-03-14T08:57:43;5.05;;;1.00;;
56239;SDS011;42154;51.992;5.896;2023-03-14T09:00:10;3.75;;;0.90;;
56239;SDS011;42154;51.992;5.896;2023-03-14T09:02:39;6.47;;;0.82;;
56239;SDS011;42154;51.992;5.896;2023-03-14T09:05:06;6.68;;;0.80;;
56239;SDS011;42154;51.992;5.896;2023-03-14T09:07:32;4.60;;;1.02;;
56239;SDS011;42154;51.992;5.896;2023-03-14T09:09:58;5.97;;;0.90;;
56239;SDS011;42154;51.992;5.896;2023-03-14T09:12:24;4.53;;;0.80;;
56239;SDS011;42154;51.992;5.896;2023-03-14T09:14:49;4.10;;;0.82;;
56239;SDS011;42154;51.992;5.896;2023-03-14T09:17:15;7.05;;;0.90;;
56239;SDS011;42154;51.992;5.896;2023-03-14T09:19:41;3.28;;;0.50;;
56239;SDS011;42154;51.992;5.896;2023-03-14T09:22:06;5.30;;;0.70;;
56239;SDS011;42154;51.992;5.896;2023-03-14T09:24:32;4.78;;;0.60;;
56239;SDS011;42154;51.992;5.896;2023-03-14T09:26:58;3.75;;;0.50;;
56239;SDS011;42154;51.992;5.896;2023-03-14T09:29:24;3.05;;;0.32;;
56239;SDS011;42154;51.992;5.896;2023-03-14T09:31:50;2.58;;;0.45;;
56239;SDS011;42154;51.992;5.896;2023-03-14T09:34:16;1.67;;;0.30;;
56239;SDS011;42154;51.992;5.896;2023-03-14T09:36:42;1.30;;;0.40;;
56239;SDS011;42154;51.992;5.896;2023-03-14T09:39:09;3.53;;;0.47;;
56239;SDS011;42154;51.992;5.896;2023-03-14T09:41:37;2.20;;;0.40;;
56239;SDS011;42154;51.992;5.896;2023-03-14T09:44:09;4.40;;;0.50;;
56239;SDS011;42154;51.992;5.896;2023-03-14T09:46:57;1.75;;;0.40;;
56239;SDS011;42154;51.992;5.896;2023-03-14T09:50:02;3.17;;;0.60;;
56239;SDS011;42154;51.992;5.896;2023-03-14T09:52:22;2.40;;;0.45;;
56239;SDS011;42154;51.992;5.896;2023-03-14T09:57:28;3.65;;;0.77;;
56239;SDS011;42154;51.992;5.896;2023-03-14T09:59:57;5.40;;;0.80;;
56239;SDS011;42154;51.992;5.896;2023-03-14T10:02:34;7.47;;;0.82;;
56239;SDS011;42154;51.992;5.896;2023-03-14T10:05:00;6.13;;;1.20;;
56239;SDS011;42154;51.992;5.896;2023-03-14T10:07:31;6.33;;;1.53;;
56239;SDS011;42154;51.992;5.896;2023-03-14T10:09:58;5.30;;;1.05;;
56239;SDS011;42154;51.992;5.896;2023-03-14T10:12:34;4.32;;;1.30;;
56239;SDS011;42154;51.992;5.896;2023-03-14T10:15:03;8.43;;;1.05;;
56239;SDS011;42154;51.992;5.896;2023-03-14T10:17:37;5.50;;;1.15;;
56239;SDS011;42154;51.992;5.896;2023-03-14T10:20:04;5.93;;;1.10;;
56239;SDS011;42154;51.992;5.896;2023-03-14T10:22:31;10.48;;;1.70;;
56239;SDS011;42154;51.992;5.896;2023-03-14T10:25:01;10.75;;;1.40;;
56239;SDS011;42154;51.992;5.896;2023-03-14T10:27:47;6.18;;;1.65;;
56239;SDS011;42154;51.992;5.896;2023-03-14T10:30:26;10.15;;;1.60;;
56239;SDS011;42154;51.992;5.896;2023-03-14T10:32:55;16.35;;;2.17;;
56239;SDS011;42154;51.992;5.896;2023-03-14T10:35:21;12.50;;;1.88;;
56239;SDS011;42154;51.992;5.896;2023-03-14T10:37:52;15.95;;;2.65;;
56239;SDS011;42154;51.992;5.896;2023-03-14T10:40:26;13.27;;;3.08;;
56239;SDS011;42154;51.992;5.896;2023-03-14T10:42:59;14.93;;;2.38;;
56239;SDS011;42154;51.992;5.896;2023-03-14T10:47:58;12.63;;;2.47;;
56239;SDS011;42154;51.992;5.896;2023-03-14T10:50:32;17.55;;;2.50;;
56239;SDS011;42154;51.992;5.896;2023-03-14T10:53:00;15.05;;;2.50;;
56239;SDS011;42154;51.992;5.896;2023-03-14T10:55:41;11.77;;;2.95;;
56239;SDS011;42154;51.992;5.896;2023-03-14T11:01:52;11.52;;;2.33;;
56239;SDS011;42154;51.992;5.896;2023-03-14T11:09:25;10.43;;;1.80;;
56239;SDS011;42154;51.992;5.896;2023-03-14T11:12:21;10.32;;;2.15;;
56239;SDS011;42154;51.992;5.896;2023-03-14T11:15:13;16.10;;;2.63;;
56239;SDS011;42154;51.992;5.896;2023-03-14T11:28:38;16.10;;;3.17;;
56239;SDS011;42154;51.992;5.896;2023-03-14T11:37:05;12.82;;;2.50;;
56239;SDS011;42154;51.992;5.896;2023-03-14T11:39:15;11.75;;;2.55;;
56239;SDS011;42154;51.992;5.896;2023-03-14T11:41:43;19.10;;;3.00;;
56239;SDS011;42154;51.992;5.896;2023-03-14T11:44:18;17.73;;;2.38;;
56239;SDS011;42154;51.992;5.896;2023-03-14T11:47:09;17.92;;;2.90;;
56239;SDS011;42154;51.992;5.896;2023-03-14T11:52:35;22.63;;;4.40;;
56239;SDS011;42154;51.992;5.896;2023-03-14T12:00:50;16.52;;;3.47;;
56239;SDS011;42154;51.992;5.896;2023-03-14T12:09:00;14.07;;;2.53;;
56239;SDS011;42154;51.992;5.896;2023-03-14T12:13:57;20.45;;;3.25;;
56239;SDS011;42154;51.992;5.896;2023-03-14T12:18:49;11.57;;;2.63;;
56239;SDS011;42154;51.992;5.896;2023-03-14T12:21:16;11.10;;;2.40;;
56239;SDS011;42154;51.992;5.896;2023-03-14T12:34:39;8.23;;;1.85;;
56239;SDS011;42154;51.992;5.896;2023-03-14T12:42:12;12.57;;;1.88;;
56239;SDS011;42154;51.992;5.896;2023-03-14T12:44:53;9.45;;;2.03;;
56239;SDS011;42154;51.992;5.896;2023-03-14T12:47:45;10.13;;;1.88;;
56239;SDS011;42154;51.992;5.896;2023-03-14T12:50:31;8.20;;;1.90;;
56239;SDS011;42154;51.992;5.896;2023-03-14T12:55:49;12.43;;;2.35;;
56239;SDS011;42154;51.992;5.896;2023-03-14T12:58:31;11.85;;;1.63;;
56239;SDS011;42154;51.992;5.896;2023-03-14T13:01:10;11.60;;;2.35;;
56239;SDS011;42154;51.992;5.896;2023-03-14T13:03:45;12.27;;;1.77;;
56239;SDS011;42154;51.992;5.896;2023-03-14T13:12:00;8.70;;;2.10;;
56239;SDS011;42154;51.992;5.896;2023-03-14T13:14:29;10.73;;;1.80;;
56239;SDS011;42154;51.992;5.896;2023-03-14T13:16:59;9.98;;;1.90;;
56239;SDS011;42154;51.992;5.896;2023-03-14T13:19:26;8.35;;;1.52;;
56239;SDS011;42154;51.992;5.896;2023-03-14T13:22:01;10.32;;;2.00;;
56239;SDS011;42154;51.992;5.896;2023-03-14T13:24:29;9.73;;;1.75;;
56239;SDS011;42154;51.992;5.896;2023-03-14T13:26:59;9.52;;;1.70;;
56239;SDS011;42154;51.992;5.896;2023-03-14T13:29:25;6.50;;;1.30;;
56239;SDS011;42154;51.992;5.896;2023-03-14T13:31:54;3.42;;;0.98;;
56239;SDS011;42154;51.992;5.896;2023-03-14T13:34:25;6.03;;;1.40;;
56239;SDS011;42154;51.992;5.896;2023-03-14T13:36:54;6.53;;;1.75;;
56239;SDS011;42154;51.992;5.896;2023-03-14T13:39:20;4.18;;;0.85;;
56239;SDS011;42154;51.992;5.896;2023-03-14T13:41:50;8.15;;;1.10;;
56239;SDS011;42154;51.992;5.896;2023-03-14T13:44:26;9.98;;;1.70;;
56239;SDS011;42154;51.992;5.896;2023-03-14T13:47:04;6.70;;;1.27;;
56239;SDS011;42154;51.992;5.896;2023-03-14T13:49:34;5.47;;;1.20;;
56239;SDS011;42154;51.992;5.896;2023-03-14T13:52:02;11.05;;;1.55;;
56239;SDS011;42154;51.992;5.896;2023-03-14T13:54:29;7.20;;;1.23;;
56239;SDS011;42154;51.992;5.896;2023-03-14T13:57:00;7.90;;;1.08;;
56239;SDS011;42154;51.992;5.896;2023-03-14T13:59:28;5.18;;;1.10;;
56239;SDS011;42154;51.992;5.896;2023-03-14T14:01:56;8.80;;;1.55;;
56239;SDS011;42154;51.992;5.896;2023-03-14T14:04:24;6.28;;;1.20;;
56239;SDS011;42154;51.992;5.896;2023-03-14T14:07:01;6.32;;;1.00;;
56239;SDS011;42154;51.992;5.896;2023-03-14T14:09:40;8.65;;;1.35;;
56239;SDS011;42154;51.992;5.896;2023-03-14T14:12:10;5.65;;;1.10;;
56239;SDS011;42154;51.992;5.896;2023-03-14T14:14:43;4.15;;;0.80;;
56239;SDS011;42154;51.992;5.896;2023-03-14T14:17:12;5.10;;;1.17;;
56239;SDS011;42154;51.992;5.896;2023-03-14T14:19:42;6.97;;;1.42;;
56239;SDS011;42154;51.992;5.896;2023-03-14T14:22:09;8.07;;;1.08;;
56239;SDS011;42154;51.992;5.896;2023-03-14T14:24:36;7.60;;;1.45;;
56239;SDS011;42154;51.992;5.896;2023-03-14T14:30:45;5.32;;;1.05;;
56239;SDS011;42154;51.992;5.896;2023-03-14T14:32:47;4.75;;;1.17;;
56239;SDS011;42154;51.992;5.896;2023-03-14T14:38:00;4.22;;;1.10;;
56239;SDS011;42154;51.992;5.896;2023-03-14T14:40:28;8.07;;;1.45;;
56239;SDS011;42154;51.992;5.896;2023-03-14T14:42:55;5.25;;;1.02;;
56239;SDS011;42154;51.992;5.896;2023-03-14T14:45:28;5.00;;;1.00;;
56239;SDS011;42154;51.992;5.896;2023-03-14T14:47:55;7.50;;;1.55;;
56239;SDS011;42154;51.992;5.896;2023-03-14T14:50:27;4.65;;;1.02;;
56239;SDS011;42154;51.992;5.896;2023-03-14T14:53:41;4.00;;;1.08;;
56239;SDS011;42154;51.992;5.896;2023-03-14T14:55:54;5.65;;;1.05;;
56239;SDS011;42154;51.992;5.896;2023-03-14T15:00:57;8.77;;;0.90;;
56239;SDS011;42154;51.992;5.896;2023-03-14T15:03:29;6.50;;;1.20;;
56239;SDS011;42154;51.992;5.896;2023-03-14T15:05:57;6.50;;;1.45;;
56239;SDS011;42154;51.992;5.896;2023-03-14T15:08:23;4.55;;;0.90;;
56239;SDS011;42154;51.992;5.896;2023-03-14T15:10:51;5.05;;;0.90;;
56239;SDS011;42154;51.992;5.896;2023-03-14T15:13:16;6.88;;;1.30;;
56239;SDS011;42154;51.992;5.896;2023-03-14T15:15:42;7.88;;;1.30;;
56239;SDS011;42154;51.992;5.896;2023-03-14T15:18:15;4.57;;;1.15;;
56239;SDS011;42154;51.992;5.896;2023-03-14T15:20:43;7.78;;;1.20;;
56239;SDS011;42154;51.992;5.896;2023-03-14T15:23:10;9.38;;;1.92;;
56239;SDS011;42154;51.992;5.896;2023-03-14T15:28:14;5.65;;;1.73;;
56239;SDS011;42154;51.992;5.896;2023-03-14T15:30:47;4.38;;;0.80;;
56239;SDS011;42154;51.992;5.896;2023-03-14T15:33:14;5.75;;;1.20;;
56239;SDS011;42154;51.992;5.896;2023-03-14T15:35:40;6.18;;;1.25;;
56239;SDS011;42154;51.992;5.896;2023-03-14T15:38:10;7.18;;;1.33;;
56239;SDS011;42154;51.992;5.896;2023-03-14T15:40:37;9.90;;;1.52;;
56239;SDS011;42154;51.992;5.896;2023-03-14T15:43:03;7.35;;;1.23;;
56239;SDS011;42154;51.992;5.896;2023-03-14T15:45:29;7.93;;;1.40;;
56239;SDS011;42154;51.992;5.896;2023-03-14T15:47:55;8.10;;;1.88;;
56239;SDS011;42154;51.992;5.896;2023-03-14T15:50:21;9.02;;;2.40;;
56239;SDS011;42154;51.992;5.896;2023-03-14T15:52:47;8.60;;;1.70;;
56239;SDS011;42154;51.992;5.896;2023-03-14T15:55:13;7.45;;;1.35;;
56239;SDS011;42154;51.992;5.896;2023-03-14T15:57:40;10.02;;;1.60;;
56239;SDS011;42154;51.992;5.896;2023-03-14T16:00:09;6.00;;;1.73;;
56239;SDS011;42154;51.992;5.896;2023-03-14T16:02:41;6.22;;;1.35;;
56239;SDS011;42154;51.992;5.896;2023-03-14T16:05:07;6.22;;;1.10;;
56239;SDS011;42154;51.992;5.896;2023-03-14T16:07:35;8.93;;;2.03;;
56239;SDS011;42154;51.992;5.896;2023-03-14T16:10:01;7.10;;;1.40;;
56239;SDS011;42154;51.992;5.896;2023-03-14T16:12:28;9.00;;;1.50;;
56239;SDS011;42154;51.992;5.896;2023-03-14T16:14:54;6.50;;;1.35;;
56239;SDS011;42154;51.992;5.896;2023-03-14T16:17:19;6.05;;;1.42;;
56239;SDS011;42154;51.992;5.896;2023-03-14T16:19:45;8.02;;;1.58;;
56239;SDS011;42154;51.992;5.896;2023-03-14T16:22:11;6.90;;;1.50;;
56239;SDS011;42154;51.992;5.896;2023-03-14T16:24:37;7.55;;;1.55;;
56239;SDS011;42154;51.992;5.896;2023-03-14T16:27:03;10.30;;;1.30;;
56239;SDS011;42154;51.992;5.896;2023-03-14T16:29:29;7.25;;;1.40;;
56239;SDS011;42154;51.992;5.896;2023-03-14T16:31:55;3.55;;;0.98;;
56239;SDS011;42154;51.992;5.896;2023-03-14T16:34:21;5.90;;;1.33;;
56239;SDS011;42154;51.992;5.896;2023-03-14T16:36:47;5.72;;;1.10;;
56239;SDS011;42154;51.992;5.896;2023-03-14T16:39:16;9.85;;;2.17;;